Time;durP1;ratioP1;P1;durP2;ratioP2;P2;SDS_P1;SDS_P2;PMS_P1;PMS_P2;Temp;Humidity;BMP_temperature;BMP_pressure;BME280_temperature;BME280_humidity;BME280_pressure;Samples;Min_cycle;Max_cycle;Signal;HPM_P1;HPM_P2
2021/08/22 00:02:17;;;;;;;25.65;16.35;;;;;;;21.03;91.10;99426.88;4310175;83;28489;-78
2021/08/22 00:08:17;;;;;;;24.40;15.75;;;;;;;20.93;90.63;99422.91;4310811;81;28510;-78
2021/08/22 00:14:19;;;;;;;24.27;15.65;;;;;;;21.22;87.33;99424.18;4357683;80;28554;-78
2021/08/22 00:20:21;;;;;;;26.27;15.95;;;;;;;20.71;92.62;99426.94;4401264;80;28633;-77
2021/08/22 00:26:23;;;;;;;25.77;15.65;;;;;;;20.57;92.63;99420.80;4396275;80;28544;-77
2021/08/22 00:32:25;;;;;;;23.62;15.15;;;;;;;20.75;87.80;99415.14;4396422;80;28545;-77
2021/08/22 00:38:26;;;;;;;24.05;15.25;;;;;;;20.74;89.95;99416.78;4400179;81;28509;-77
2021/08/22 00:44:27;;;;;;;24.10;15.25;;;;;;;20.54;91.40;99411.00;4386170;81;28459;-77
2021/08/22 00:50:29;;;;;;;23.83;14.40;;;;;;;20.60;90.44;99404.36;4395720;81;28578;-77
2021/08/22 00:56:31;;;;;;;22.82;13.85;;;;;;;20.34;92.11;99404.63;4415482;80;28491;-78
2021/08/22 01:02:37;;;;;;;21.68;14.10;;;;;;;20.47;90.35;99408.04;4422289;79;28511;-78
2021/08/22 01:08:44;;;;;;;24.77;14.87;;;;;;;19.92;96.44;99400.85;4418713;80;43732;-78
2021/08/22 01:14:50;;;;;;;21.85;14.25;;;;;;;19.82;95.73;99403.66;4429619;80;28577;-78
2021/08/22 01:21:11;;;;;;;19.85;13.50;;;;;;;20.14;94.07;99402.88;4437418;79;28500;-77
2021/08/22 01:27:16;;;;;;;22.55;13.98;;;;;;;19.91;94.51;99393.77;4437579;79;28534;-77
2021/08/22 01:33:18;;;;;;;21.65;13.78;;;;;;;19.94;94.85;99399.78;4425568;80;28609;-77
2021/08/22 01:39:20;;;;;;;20.95;12.93;;;;;;;19.72;95.81;99394.98;4436827;79;28546;-78
2021/08/22 01:45:21;;;;;;;18.10;12.35;;;;;;;19.53;98.00;99395.41;4413914;80;28541;-77
2021/08/22 01:51:29;;;;;;;22.05;13.05;;;;;;;19.59;97.46;99401.08;4449912;80;28509;-78
2021/08/22 01:57:32;;;;;;;18.30;12.43;;;;;;;19.32;98.71;99399.61;4541448;77;28501;-78
2021/08/22 02:04:03;;;;;;;17.57;11.55;;;;;;;19.59;94.88;99399.17;4521064;79;28475;-78
2021/08/22 02:10:18;;;;;;;18.73;11.57;;;;;;;19.29;98.37;99394.70;4566274;77;28467;-79
2021/08/22 02:16:23;;;;;;;19.40;12.27;;;;;;;19.13;100.00;99405.69;4566447;77;28476;-79
2021/08/22 02:22:25;;;;;;;17.73;12.13;;;;;;;19.35;95.49;99403.92;4582670;77;28433;-80
2021/08/22 02:28:27;;;;;;;16.70;11.48;;;;;;;19.35;94.81;99400.41;4533531;77;28477;-79
2021/08/22 02:34:28;;;;;;;16.10;11.05;;;;;;;19.23;96.73;99395.27;4506871;77;28482;-79
2021/08/22 02:40:30;;;;;;;17.02;10.00;;;;;;;19.04;96.68;99392.38;4590562;77;28467;-79
2021/08/22 02:46:31;;;;;;;16.00;10.30;;;;;;;18.99;97.38;99393.70;4567498;77;28500;-78
2021/08/22 02:52:33;;;;;;;18.32;11.12;;;;;;;19.25;97.19;99390.91;4590107;77;28492;-79
2021/08/22 02:58:34;;;;;;;17.80;11.30;;;;;;;19.36;95.24;99391.13;4590567;77;28557;-78
2021/08/22 03:04:35;;;;;;;16.93;11.93;;;;;;;19.13;98.92;99383.88;4590377;77;28515;-78
2021/08/22 03:10:37;;;;;;;16.73;10.25;;;;;;;18.72;100.00;99375.28;4590259;77;28468;-78
2021/08/22 03:16:38;;;;;;;14.53;10.38;;;;;;;18.92;100.00;99375.77;4600650;77;28507;-78
2021/08/22 03:22:44;;;;;;;18.27;10.48;;;;;;;19.03;95.63;99375.19;4590661;77;28474;-78
2021/08/22 03:28:45;;;;;;;16.35;10.88;;;;;;;18.63;100.00;99369.59;4580669;76;28495;-78
2021/08/22 03:34:47;;;;;;;17.12;11.33;;;;;;;18.60;100.00;99370.16;4576352;78;28491;-77
2021/08/22 03:40:48;;;;;;;19.20;11.28;;;;;;;18.57;100.00;99366.61;4576423;78;28466;-77
2021/08/22 03:46:49;;;;;;;17.02;10.13;;;;;;;18.62;99.78;99370.69;4562986;77;28477;-77
2021/08/22 03:52:52;;;;;;;13.88;9.58;;;;;;;18.67;100.00;99370.66;4337077;80;28482;-79
2021/08/22 03:58:53;;;;;;;17.42;10.70;;;;;;;18.61;100.00;99365.51;4337869;81;28477;-78
2021/08/22 04:04:55;;;;;;;16.48;10.80;;;;;;;18.72;100.00;99369.83;4545206;78;28437;-78
2021/08/22 04:10:57;;;;;;;15.08;10.63;;;;;;;18.99;99.06;99370.02;4545169;78;28517;-78
2021/08/22 04:16:58;;;;;;;16.00;11.20;;;;;;;18.83;100.00;99365.17;4548465;78;28562;-79
2021/08/22 04:23:00;;;;;;;15.13;10.60;;;;;;;19.04;98.48;99370.01;4565901;76;28523;-79
2021/08/22 04:29:01;;;;;;;15.45;9.93;;;;;;;19.09;99.68;99366.45;4493070;76;28476;-78
2021/08/22 04:35:03;;;;;;;16.35;10.35;;;;;;;19.35;97.51;99367.13;4532345;77;28583;-78
2021/08/22 04:41:04;;;;;;;17.05;11.03;;;;;;;18.95;100.00;99370.28;4584953;76;28467;-79
2021/08/22 04:47:06;;;;;;;16.27;10.78;;;;;;;19.22;100.00;99373.20;4561450;76;28485;-80
2021/08/22 04:53:07;;;;;;;15.95;10.95;;;;;;;19.54;99.83;99370.56;4663835;75;28466;-80
2021/08/22 04:59:09;;;;;;;17.35;10.98;;;;;;;19.65;99.84;99368.03;4476753;79;28488;-80
2021/08/22 05:05:10;;;;;;;16.52;10.68;;;;;;;19.87;100.00;99363.25;4435492;79;28439;-80
2021/08/22 05:11:11;;;;;;;16.82;10.30;;;;;;;20.08;99.59;99362.53;4416304;81;28531;-80
2021/08/22 05:17:13;;;;;;;17.48;12.13;;;;;;;20.20;99.98;99360.27;4426980;80;29010;-80
2021/08/22 05:23:17;;;;;;;20.30;12.18;;;;;;;20.58;97.17;99356.05;4430257;80;28490;-80
2021/08/22 05:29:21;;;;;;;22.27;13.30;;;;;;;20.61;97.09;99357.64;4450269;80;28451;-81
2021/08/22 05:35:22;;;;;;;20.92;12.70;;;;;;;20.59;99.14;99366.69;4457939;78;28494;-80
2021/08/22 05:41:23;;;;;;;20.92;13.62;;;;;;;20.80;100.00;99367.00;4458284;80;28474;-81
2021/08/22 05:47:25;;;;;;;22.75;15.40;;;;;;;21.13;98.84;99358.95;4458248;80;28511;-82
2021/08/22 05:53:28;;;;;;;24.45;17.48;;;;;;;21.31;97.98;99356.80;4457385;79;28524;-81
2021/08/22 05:59:29;;;;;;;27.75;18.52;;;;;;;21.29;100.00;99357.65;4426999;79;28477;-80
2021/08/22 06:05:30;;;;;;;25.72;18.12;;;;;;;21.14;100.00;99356.51;4571349;76;28508;-78
2021/08/22 06:11:32;;;;;;;27.75;17.98;;;;;;;21.57;99.88;99356.98;4569728;78;28493;-83
2021/08/22 06:17:33;;;;;;;24.60;17.62;;;;;;;22.10;95.02;99353.69;4584813;77;28510;-80
2021/08/22 06:23:34;;;;;;;24.32;16.12;;;;;;;22.35;92.29;99344.20;4599134;77;28481;-80
2021/08/22 06:29:35;;;;;;;22.45;15.00;;;;;;;22.49;91.74;99344.80;4592608;77;28538;-81
2021/08/22 06:35:37;;;;;;;23.65;15.03;;;;;;;22.56;91.19;99344.67;4599121;76;28497;-85
2021/08/22 06:41:38;;;;;;;24.27;17.55;;;;;;;22.81;87.61;99335.67;4599194;77;28484;-81
2021/08/22 06:47:40;;;;;;;26.62;18.92;;;;;;;22.95;85.90;99338.40;4598314;77;28516;-81
2021/08/22 06:53:41;;;;;;;23.57;16.50;;;;;;;23.02;85.53;99337.19;4598106;77;28529;-83
2021/08/22 06:59:42;;;;;;;20.95;14.43;;;;;;;23.41;83.75;99339.09;4595265;77;28545;-81
2021/08/22 07:05:44;;;;;;;20.95;14.03;;;;;;;23.33;84.22;99331.84;4553211;77;28512;-84
2021/08/22 07:11:46;;;;;;;18.67;13.32;;;;;;;23.19;85.16;99331.05;4583647;76;28542;-82
2021/08/22 07:17:48;;;;;;;17.82;11.97;;;;;;;23.34;83.61;99333.46;4592984;77;28548;-82
2021/08/22 07:23:49;;;;;;;16.48;11.30;;;;;;;23.64;83.43;99332.48;4580962;77;28484;-84
2021/08/22 07:29:50;;;;;;;15.75;11.97;;;;;;;23.77;80.83;99334.93;4587074;76;28972;-85
2021/08/22 07:35:52;;;;;;;13.75;10.93;;;;;;;23.87;79.86;99339.34;4563141;76;28520;-83
2021/08/22 07:41:53;;;;;;;18.00;11.38;;;;;;;24.02;78.73;99336.77;4561818;76;28459;-83
2021/08/22 07:47:54;;;;;;;15.03;11.70;;;;;;;24.16;76.71;99337.27;4568414;76;28554;-82
2021/08/22 07:53:57;;;;;;;15.10;11.43;;;;;;;24.11;79.03;99336.87;4531364;76;28569;-82
2021/08/22 07:59:58;;;;;;;13.50;10.45;;;;;;;24.31;76.71;99327.80;4555379;76;28469;-82
2021/08/22 08:05:59;;;;;;;15.58;12.65;;;;;;;24.51;76.38;99335.48;4553961;76;28521;-83
2021/08/22 08:12:00;;;;;;;13.05;10.55;;;;;;;24.56;76.94;99340.61;4555574;76;28515;-82
2021/08/22 08:18:02;;;;;;;15.00;11.22;;;;;;;24.74;75.27;99336.80;4463816;77;28577;-83
2021/08/22 08:24:04;;;;;;;15.03;10.85;;;;;;;25.18;73.36;99333.34;4579724;77;28499;-83
2021/08/22 08:30:07;;;;;;;14.18;9.55;;;;;;;25.48;74.45;99329.39;4571387;76;28467;-91
2021/08/22 08:36:08;;;;;;;11.95;9.30;;;;;;;25.73;73.51;99327.78;4566513;76;28469;-84
2021/08/22 08:42:23;;;;;;;16.20;10.60;;;;;;;26.06;69.75;99328.36;4573387;76;28433;-83
2021/08/22 08:48:27;;;;;;;14.93;9.20;;;;;;;26.02;70.47;99324.07;4551322;76;28464;-85
2021/08/22 08:54:49;;;;;;;10.95;9.05;;;;;;;26.34;67.52;99330.16;4582985;77;28535;-86
2021/08/22 09:00:51;;;;;;;11.22;8.55;;;;;;;26.49;66.98;99321.91;4540501;77;28518;-85
2021/08/22 09:07:46;;;;;;;9.65;8.15;;;;;;;26.72;66.69;99328.52;4556809;76;28491;-82
2021/08/22 09:14:32;;;;;;;10.13;8.43;;;;;;;26.89;65.04;99319.36;4539291;76;28520;-83
2021/08/22 09:21:32;;;;;;;8.80;7.55;;;;;;;27.00;62.68;99309.54;4432655;78;28459;-82
2021/08/22 09:28:12;;;;;;;10.65;8.73;;;;;;;27.27;59.73;99305.20;4442351;78;28561;-83
2021/08/22 09:35:14;;;;;;;11.12;7.95;;;;;;;27.21;62.58;99305.98;4429556;79;28463;-83
2021/08/22 09:42:01;;;;;;;9.30;7.62;;;;;;;26.64;64.59;99301.79;4438740;78;28511;-84
2021/08/22 09:48:58;;;;;;;9.18;6.90;;;;;;;27.59;60.70;99304.22;4458013;78;28526;-85
2021/08/22 09:55:51;;;;;;;7.83;6.47;;;;;;;27.45;57.44;99309.20;4344888;80;28529;-83
2021/08/22 10:02:36;;;;;;;8.00;6.33;;;;;;;27.67;58.29;99308.06;4304690;81;28528;-84
2021/08/22 10:09:22;;;;;;;8.90;6.60;;;;;;;27.56;55.60;99292.48;4459579;79;28556;-82
2021/08/22 10:15:24;;;;;;;8.40;6.17;;;;;;;27.71;54.86;99286.09;4476342;77;28471;-84
2021/08/22 10:21:27;;;;;;;6.30;5.03;;;;;;;27.94;52.43;99276.80;4552500;77;28518;-84
2021/08/22 10:27:45;;;;;;;7.25;6.12;;;;;;;28.09;51.60;99276.16;4568710;76;28522;-81
2021/08/22 10:34:18;;;;;;;6.10;5.08;;;;;;;28.44;52.32;99265.82;4566929;76;28494;-83
2021/08/22 10:40:33;;;;;;;7.10;5.15;;;;;;;28.42;52.76;99271.69;4554387;76;28433;-83
2021/08/22 10:46:47;;;;;;;6.20;4.47;;;;;;;28.39;51.52;99269.63;4571472;77;28524;-84
2021/08/22 10:52:48;;;;;;;7.65;4.90;;;;;;;28.65;52.49;99264.31;4529011;77;28533;-84
2021/08/22 10:59:03;;;;;;;4.80;3.90;;;;;;;28.63;46.54;99266.03;4557215;77;28467;-82
2021/08/22 11:05:17;;;;;;;5.77;4.37;;;;;;;28.86;44.91;99262.80;4511079;77;28452;-81
2021/08/22 11:11:18;;;;;;;4.22;3.67;;;;;;;29.09;45.71;99258.11;4528195;76;28461;-83
2021/08/22 11:17:20;;;;;;;3.52;3.15;;;;;;;29.41;45.67;99262.96;4545707;77;28450;-84
2021/08/22 11:23:21;;;;;;;4.25;3.15;;;;;;;29.73;44.09;99267.21;4572373;76;28494;-83
2021/08/22 11:29:23;;;;;;;5.42;3.20;;;;;;;29.86;42.56;99252.11;4556138;76;28440;-83
2021/08/22 11:35:25;;;;;;;4.67;3.02;;;;;;;30.04;41.42;99253.16;4427191;79;28453;-85
2021/08/22 11:41:27;;;;;;;3.83;3.08;;;;;;;29.70;40.23;99252.69;4361842;80;28429;-84
2021/08/22 11:47:29;;;;;;;4.42;3.27;;;;;;;30.14;40.22;99261.52;4443844;79;28512;-84
2021/08/22 11:53:31;;;;;;;3.47;2.85;;;;;;;29.92;39.08;99258.19;4537631;77;28464;-84
2021/08/22 11:59:33;;;;;;;3.85;3.15;;;;;;;29.30;39.37;99250.19;4573098;76;28458;-85
2021/08/22 12:05:34;;;;;;;3.50;2.80;;;;;;;29.18;39.27;99250.47;4532427;77;28445;-85
2021/08/22 12:11:35;;;;;;;3.05;2.47;;;;;;;29.80;38.99;99247.19;4463322;77;28467;-83
2021/08/22 12:17:37;;;;;;;3.75;2.40;;;;;;;30.33;36.00;99238.63;4578428;76;28542;-86
2021/08/22 12:23:38;;;;;;;3.35;2.75;;;;;;;30.23;35.82;99243.34;4541226;76;28722;-86
2021/08/22 12:29:39;;;;;;;3.30;2.47;;;;;;;30.35;35.03;99246.00;4585853;76;28473;-86
2021/08/22 12:35:41;;;;;;;3.87;2.70;;;;;;;30.16;36.14;99236.45;4477274;78;28453;-86
2021/08/22 12:41:50;;;;;;;4.53;2.80;;;;;;;30.45;35.61;99233.53;4480247;78;28506;-85
2021/08/22 12:47:52;;;;;;;3.25;2.35;;;;;;;31.18;35.96;99226.77;4480739;78;28422;-85
2021/08/22 12:53:56;;;;;;;3.02;2.60;;;;;;;31.21;36.73;99217.72;4469724;78;28476;-85
2021/08/22 12:59:57;;;;;;;3.92;2.55;;;;;;;31.32;35.95;99204.06;4410830;79;28489;-85
2021/08/22 13:05:58;;;;;;;3.87;2.67;;;;;;;31.38;35.93;99207.55;4417467;79;28515;-86
2021/08/22 13:11:59;;;;;;;3.58;2.52;;;;;;;31.37;37.44;99201.78;4396667;79;28463;-85
2021/08/22 13:18:01;;;;;;;3.08;2.30;;;;;;;31.42;38.30;99197.90;4405116;79;28458;-81
2021/08/22 13:24:02;;;;;;;3.15;2.15;;;;;;;31.71;36.67;99189.50;4547116;77;28532;-81
2021/08/22 13:30:04;;;;;;;2.47;2.27;;;;;;;31.62;36.79;99190.33;4532394;77;28527;-82
2021/08/22 13:36:06;;;;;;;3.33;2.60;;;;;;;31.59;33.50;99188.28;4527335;76;28481;-85
2021/08/22 13:42:07;;;;;;;3.30;2.33;;;;;;;31.93;33.70;99174.59;4520121;77;28494;-85
2021/08/22 13:48:09;;;;;;;3.27;2.55;;;;;;;31.15;35.59;99182.52;4542845;76;28459;-85
2021/08/22 13:54:12;;;;;;;3.45;2.70;;;;;;;31.71;35.07;99178.39;4435157;78;28492;-84
2021/08/22 14:00:14;;;;;;;3.45;2.58;;;;;;;31.80;35.37;99170.39;4364973;80;28450;-87
2021/08/22 14:06:16;;;;;;;2.65;2.30;;;;;;;31.41;34.26;99174.89;4359855;79;28473;-88
2021/08/22 14:12:17;;;;;;;2.92;2.62;;;;;;;31.26;33.75;99162.72;4543925;76;28481;-82
2021/08/22 14:18:19;;;;;;;4.42;2.42;;;;;;;31.51;33.59;99158.79;4560236;76;28538;-80
2021/08/22 14:24:20;;;;;;;3.25;2.47;;;;;;;31.60;35.00;99146.02;4551157;76;28436;-82
2021/08/22 14:30:22;;;;;;;3.25;2.47;;;;;;;31.34;35.94;99145.59;4571392;76;28551;-85
2021/08/22 14:36:23;;;;;;;3.98;2.52;;;;;;;30.89;34.85;99139.57;4556323;76;28468;-83
2021/08/22 14:42:25;;;;;;;4.22;3.02;;;;;;;31.14;34.36;99135.89;4582202;76;28509;-84
2021/08/22 14:48:26;;;;;;;3.75;3.02;;;;;;;31.27;34.14;99125.45;4573942;76;28468;-83
2021/08/22 14:54:27;;;;;;;3.25;2.60;;;;;;;31.09;34.82;99122.32;4570008;76;28492;-84
2021/08/22 15:00:29;;;;;;;3.87;2.47;;;;;;;31.02;35.35;99109.09;4565394;77;28441;-83
2021/08/22 15:06:31;;;;;;;4.12;2.33;;;;;;;31.23;34.90;99109.89;4549502;76;28914;-81
2021/08/22 15:12:33;;;;;;;3.12;2.55;;;;;;;31.13;34.30;99111.26;4545937;77;28491;-81
2021/08/22 15:18:35;;;;;;;4.05;2.45;;;;;;;30.82;35.27;99097.23;4547150;76;28586;-82
2021/08/22 15:24:37;;;;;;;3.90;2.67;;;;;;;30.88;34.65;99104.66;4569136;78;28471;-82
2021/08/22 15:30:39;;;;;;;4.05;3.10;;;;;;;30.75;38.00;99098.47;4581324;77;28560;-82
2021/08/22 15:36:41;;;;;;;3.45;2.52;;;;;;;30.73;41.62;99107.17;4580816;77;28531;-82
2021/08/22 15:42:43;;;;;;;5.20;2.87;;;;;;;30.45;36.89;99099.84;4581406;77;28467;-82
2021/08/22 15:48:47;;;;;;;3.90;2.72;;;;;;;30.58;45.67;99100.50;4585005;77;28512;-81
2021/08/22 15:54:47;;;;;;;3.05;2.75;;;;;;;30.49;49.57;99086.63;4584789;77;28467;-81
2021/08/22 16:00:49;;;;;;;3.33;2.92;;;;;;;30.49;51.37;99087.44;4544511;77;28473;-81
2021/08/22 16:06:50;;;;;;;4.22;2.70;;;;;;;30.25;52.31;99082.40;4521999;77;28508;-81
2021/08/22 16:12:52;;;;;;;3.87;2.90;;;;;;;30.21;53.17;99087.65;4570492;77;28445;-80
2021/08/22 16:18:54;;;;;;;3.52;2.92;;;;;;;29.92;55.32;99084.99;4590002;77;28499;-81
2021/08/22 16:24:55;;;;;;;4.80;3.08;;;;;;;29.58;58.53;99079.06;4584386;76;28563;-81
2021/08/22 16:30:56;;;;;;;3.12;2.83;;;;;;;29.44;57.89;99083.10;4591344;77;28505;-81
2021/08/22 16:36:58;;;;;;;3.33;2.95;;;;;;;29.30;59.00;99078.55;4591173;76;28579;-80
2021/08/22 16:43:00;;;;;;;4.25;2.95;;;;;;;29.21;58.71;99073.19;4591131;77;28470;-82
2021/08/22 16:49:01;;;;;;;4.33;3.20;;;;;;;29.10;60.64;99073.50;4591411;77;28568;-82
2021/08/22 16:55:03;;;;;;;5.17;3.22;;;;;;;28.91;60.93;99077.19;4591981;77;28482;-81
2021/08/22 17:01:05;;;;;;;4.78;3.02;;;;;;;28.95;59.29;99074.52;4591568;77;28570;-81
2021/08/22 17:07:06;;;;;;;5.83;3.47;;;;;;;28.68;61.72;99072.77;4525704;76;28567;-81
2021/08/22 17:13:09;;;;;;;4.75;3.50;;;;;;;28.58;60.55;99078.20;4479431;79;28456;-81
2021/08/22 17:19:13;;;;;;;5.20;3.95;;;;;;;28.48;61.52;99080.09;4417460;80;28561;-82
2021/08/22 17:25:15;;;;;;;8.30;5.72;;;;;;;28.20;59.84;99085.81;4422313;80;28570;-81
2021/08/22 17:31:16;;;;;;;8.90;5.35;;;;;;;28.30;62.15;99093.40;4414571;79;28489;-80
2021/08/22 17:37:22;;;;;;;7.80;4.93;;;;;;;28.04;62.43;99093.99;4390530;79;28535;-81
2021/08/22 17:43:25;;;;;;;6.37;3.65;;;;;;;27.87;63.49;99091.50;4462182;77;28485;-80
2021/08/22 17:49:26;;;;;;;6.25;3.40;;;;;;;27.79;63.80;99094.59;4471378;77;28521;-79
2021/08/22 17:55:30;;;;;;;4.87;3.90;;;;;;;27.86;63.40;99092.06;4477074;77;28464;-79
2021/08/22 18:01:34;;;;;;;5.85;3.90;;;;;;;27.92;64.38;99093.45;4380681;79;28497;-79
2021/08/22 18:07:38;;;;;;;6.03;4.17;;;;;;;27.78;60.20;99091.05;4422592;79;28465;-79
2021/08/22 18:13:42;;;;;;;7.90;3.87;;;;;;;27.91;57.13;99088.27;4373069;79;28500;-79
2021/08/22 18:19:43;;;;;;;4.97;4.08;;;;;;;28.08;55.35;99089.97;4395275;79;28462;-78
2021/08/22 18:25:47;;;;;;;5.67;4.20;;;;;;;27.90;61.60;99089.42;4395901;79;28420;-80
2021/08/22 18:31:48;;;;;;;6.50;4.25;;;;;;;27.68;62.65;99106.11;4409118;79;28512;-78
2021/08/22 18:37:50;;;;;;;6.40;4.50;;;;;;;27.57;63.98;99105.55;4400686;79;28449;-81
2021/08/22 18:43:51;;;;;;;9.03;5.40;;;;;;;26.99;63.73;99103.78;4411687;79;28454;-80
2021/08/22 18:49:53;;;;;;;7.75;4.72;;;;;;;26.79;68.42;99104.61;4392646;79;28476;-81
2021/08/22 18:56:02;;;;;;;6.45;4.75;;;;;;;26.81;67.19;99112.78;4518081;77;28476;-80
2021/08/22 19:02:05;;;;;;;6.22;4.67;;;;;;;26.85;63.55;99107.39;4553374;76;28468;-81
2021/08/22 19:08:13;;;;;;;7.00;4.87;;;;;;;26.94;62.86;99110.91;4509968;77;28529;-78
2021/08/22 19:14:12;;;;;;;6.78;5.00;;;;;;;26.92;61.89;99111.83;4520192;77;28508;-79
2021/08/22 19:20:18;;;;;;;6.30;4.70;;;;;;;26.84;67.42;99112.68;4469549;78;28458;-83
2021/08/22 19:26:21;;;;;;;8.05;4.97;;;;;;;27.07;66.66;99105.42;4464513;79;28491;-79
2021/08/22 19:32:23;;;;;;;6.58;5.08;;;;;;;26.45;70.80;99112.27;4357996;80;28524;-82
2021/08/22 19:38:24;;;;;;;6.90;5.12;;;;;;;26.53;70.19;99102.31;4465580;78;28482;-81
2021/08/22 19:44:25;;;;;;;8.75;5.85;;;;;;;26.42;68.53;99112.13;4462255;77;28490;-78
2021/08/22 19:50:29;;;;;;;6.75;5.40;;;;;;;26.44;67.60;99113.41;4470430;78;28553;-78
2021/08/22 19:56:34;;;;;;;8.53;5.30;;;;;;;26.82;63.85;99099.22;4469700;78;28436;-77
2021/08/22 20:02:33;;;;;;;7.80;5.75;;;;;;;26.95;63.88;99105.62;4455901;78;28526;-76
2021/08/22 20:08:39;;;;;;;6.53;5.30;;;;;;;26.85;70.34;99100.50;4466453;79;28448;-78
2021/08/22 20:14:40;;;;;;;9.33;5.58;;;;;;;26.69;73.96;99103.88;4464129;78;28581;-79
2021/08/22 20:20:46;;;;;;;10.95;5.10;;;;;;;26.26;72.99;99103.66;4522880;77;28448;-80
2021/08/22 20:26:50;;;;;;;9.15;6.22;;;;;;;26.14;78.37;99094.73;4552917;77;28527;-81
2021/08/22 20:32:56;;;;;;;8.23;5.80;;;;;;;26.23;71.75;99091.94;4584392;77;28552;-80
2021/08/22 20:38:57;;;;;;;8.80;6.42;;;;;;;26.36;78.32;99089.48;4583876;77;28507;-80
2021/08/22 20:44:59;;;;;;;8.90;6.92;;;;;;;26.46;75.80;99080.02;4502270;76;28463;-79
2021/08/22 20:51:06;;;;;;;7.67;6.42;;;;;;;26.29;72.28;99074.86;4528418;77;28459;-79
2021/08/22 20:57:07;;;;;;;;;;;;;;;26.05;79.06;99078.25;4538840;77;28483;-80
2021/08/22 21:03:10;;;;;;;11.90;7.17;;;;;;;25.89;78.37;99078.02;4528228;77;20469;-80
2021/08/22 21:09:11;;;;;;;9.65;6.80;;;;;;;25.97;75.46;99083.23;4580928;77;28507;-79
2021/08/22 21:15:16;;;;;;;8.68;6.90;;;;;;;26.12;75.53;99077.71;4580992;77;28481;-79
2021/08/22 21:21:18;;;;;;;10.90;7.60;;;;;;;26.08;74.69;99074.02;4587294;77;28508;-78
2021/08/22 21:27:19;;;;;;;11.45;7.35;;;;;;;25.88;75.40;99076.41;4574865;77;28574;-78
2021/08/22 21:33:22;;;;;;;10.53;7.55;;;;;;;25.63;78.22;99068.53;4583256;77;28494;-79
2021/08/22 21:39:24;;;;;;;11.48;7.00;;;;;;;25.83;76.87;99060.89;4591965;77;28473;-78
2021/08/22 21:45:25;;;;;;;8.85;6.70;;;;;;;25.84;77.39;99068.00;4591335;77;28577;-78
2021/08/22 21:51:30;;;;;;;9.68;7.45;;;;;;;25.54;79.10;99066.62;4591283;76;28500;-78
2021/08/22 21:57:35;;;;;;;11.48;7.20;;;;;;;25.57;77.93;99065.16;4590931;77;28524;-78
2021/08/22 22:03:38;;;;;;;9.47;7.27;;;;;;;25.37;80.26;99063.94;4592027;77;28475;-78
2021/08/22 22:09:46;;;;;;;9.40;7.22;;;;;;;25.58;78.35;99073.66;4591484;77;28489;-78
2021/08/22 22:15:50;;;;;;;10.43;6.75;;;;;;;25.69;80.70;99094.75;4590421;77;28495;-77
2021/08/22 22:21:51;;;;;;;12.90;7.70;;;;;;;25.40;94.35;99088.83;4591092;77;28574;-79
2021/08/22 22:27:56;;;;;;;10.72;8.00;;;;;;;25.13;93.41;99103.25;4579304;77;28472;-77
2021/08/22 22:33:57;;;;;;;9.40;7.17;;;;;;;25.40;88.83;99119.09;4540211;77;28486;-78
2021/08/22 22:40:01;;;;;;;10.25;7.25;;;;;;;25.31;92.85;99105.38;4590977;77;28507;-78
2021/08/22 22:46:09;;;;;;;9.30;7.35;;;;;;;25.11;100.00;99103.33;4591270;77;28543;-79
2021/08/22 22:52:10;;;;;;;9.53;7.87;;;;;;;24.97;100.00;99082.34;4591098;77;28476;-78
2021/08/22 22:58:11;;;;;;;12.03;8.78;;;;;;;24.81;100.00;99071.05;4591745;77;28474;-79
2021/08/22 23:04:13;;;;;;;11.35;8.15;;;;;;;24.80;100.00;99065.31;4569122;77;28471;-79
2021/08/22 23:10:14;;;;;;;10.70;7.90;;;;;;;24.68;100.00;99066.48;4590771;77;28512;-81
2021/08/22 23:16:15;;;;;;;10.63;8.23;;;;;;;25.00;100.00;99070.67;4591865;77;28527;-79
2021/08/22 23:22:17;;;;;;;9.78;7.85;;;;;;;24.65;100.00;99068.76;4590178;77;28565;-80
2021/08/22 23:28:18;;;;;;;9.60;7.47;;;;;;;24.75;100.00;99075.88;4554856;77;28511;-79
2021/08/22 23:34:19;;;;;;;9.60;7.45;;;;;;;24.57;100.00;99070.15;4598035;77;28465;-79
2021/08/22 23:40:21;;;;;;;10.80;8.38;;;;;;;24.84;100.00;99066.27;4598687;77;28525;-79
2021/08/22 23:46:22;;;;;;;10.05;8.30;;;;;;;24.97;100.00;99065.84;4599065;77;28470;-79
2021/08/22 23:52:23;;;;;;;12.25;8.00;;;;;;;25.13;100.00;99067.49;4599154;77;28464;-79
2021/08/22 23:58:25;;;;;;;10.30;7.10;;;;;;;24.76;100.00;99069.24;4599148;77;28492;-79
